sensor_id;sensor_type;location;lat;lon;timestamp;P1;durP1;ratioP1;P2;durP2;ratioP2
24147;SDS011;12309;51.450;-2.624;2024-01-27T00:00:17;14.87;;;2.07;;
24147;SDS011;12309;51.450;-2.624;2024-01-27T00:02:43;17.77;;;2.37;;
24147;SDS011;12309;51.450;-2.624;2024-01-27T00:05:09;17.30;;;2.50;;
24147;SDS011;12309;51.450;-2.624;2024-01-27T00:07:35;17.07;;;2.53;;
24147;SDS011;12309;51.450;-2.624;2024-01-27T00:10:01;15.60;;;3.10;;
24147;SDS011;12309;51.450;-2.624;2024-01-27T00:12:27;15.83;;;2.10;;
24147;SDS011;12309;51.450;-2.624;2024-01-27T00:14:53;22.33;;;2.27;;
24147;SDS011;12309;51.450;-2.624;2024-01-27T00:17:19;19.60;;;2.40;;
24147;SDS011;12309;51.450;-2.624;2024-01-27T00:19:49;19.93;;;2.30;;
24147;SDS011;12309;51.450;-2.624;2024-01-27T00:22:15;10.33;;;2.10;;
24147;SDS011;12309;51.450;-2.624;2024-01-27T00:24:42;16.53;;;2.13;;
24147;SDS011;12309;51.450;-2.624;2024-01-27T00:27:08;11.63;;;2.23;;
24147;SDS011;12309;51.450;-2.624;2024-01-27T00:29:34;20.00;;;2.30;;
24147;SDS011;12309;51.450;-2.624;2024-01-27T00:32:00;17.73;;;2.53;;
24147;SDS011;12309;51.450;-2.624;2024-01-27T00:34:26;12.67;;;2.20;;
24147;SDS011;12309;51.450;-2.624;2024-01-27T00:36:53;24.50;;;2.70;;
24147;SDS011;12309;51.450;-2.624;2024-01-27T00:39:19;19.00;;;2.00;;
24147;SDS011;12309;51.450;-2.624;2024-01-27T00:41:45;13.60;;;2.63;;
24147;SDS011;12309;51.450;-2.624;2024-01-27T00:44:11;12.50;;;2.20;;
24147;SDS011;12309;51.450;-2.624;2024-01-27T00:46:38;19.70;;;2.90;;
24147;SDS011;12309;51.450;-2.624;2024-01-27T00:49:03;17.83;;;2.80;;
24147;SDS011;12309;51.450;-2.624;2024-01-27T00:51:29;17.50;;;2.40;;
24147;SDS011;12309;51.450;-2.624;2024-01-27T00:53:55;20.83;;;3.73;;
24147;SDS011;12309;51.450;-2.624;2024-01-27T00:56:21;17.87;;;2.83;;
24147;SDS011;12309;51.450;-2.624;2024-01-27T00:58:47;17.13;;;2.67;;
24147;SDS011;12309;51.450;-2.624;2024-01-27T01:01:13;13.13;;;2.40;;
24147;SDS011;12309;51.450;-2.624;2024-01-27T01:03:39;17.60;;;2.27;;
24147;SDS011;12309;51.450;-2.624;2024-01-27T01:06:05;16.93;;;2.83;;
24147;SDS011;12309;51.450;-2.624;2024-01-27T01:08:31;13.10;;;2.53;;
24147;SDS011;12309;51.450;-2.624;2024-01-27T01:10:57;17.23;;;2.27;;
24147;SDS011;12309;51.450;-2.624;2024-01-27T01:13:23;20.07;;;3.37;;
24147;SDS011;12309;51.450;-2.624;2024-01-27T01:15:49;17.97;;;2.23;;
24147;SDS011;12309;51.450;-2.624;2024-01-27T01:18:15;16.90;;;2.30;;
24147;SDS011;12309;51.450;-2.624;2024-01-27T01:20:41;17.13;;;2.23;;
24147;SDS011;12309;51.450;-2.624;2024-01-27T01:23:08;13.00;;;2.40;;
24147;SDS011;12309;51.450;-2.624;2024-01-27T01:25:34;11.03;;;1.90;;
24147;SDS011;12309;51.450;-2.624;2024-01-27T01:28:00;13.97;;;2.50;;
24147;SDS011;12309;51.450;-2.624;2024-01-27T01:30:26;13.73;;;2.30;;
24147;SDS011;12309;51.450;-2.624;2024-01-27T01:32:52;20.53;;;2.30;;
24147;SDS011;12309;51.450;-2.624;2024-01-27T01:35:18;17.03;;;2.67;;
24147;SDS011;12309;51.450;-2.624;2024-01-27T01:37:44;11.63;;;1.90;;
24147;SDS011;12309;51.450;-2.624;2024-01-27T01:40:10;15.43;;;2.47;;
24147;SDS011;12309;51.450;-2.624;2024-01-27T01:42:37;14.97;;;2.37;;
24147;SDS011;12309;51.450;-2.624;2024-01-27T01:45:03;17.93;;;2.30;;
24147;SDS011;12309;51.450;-2.624;2024-01-27T01:47:30;14.93;;;2.53;;
24147;SDS011;12309;51.450;-2.624;2024-01-27T01:49:56;14.47;;;2.30;;
24147;SDS011;12309;51.450;-2.624;2024-01-27T01:52:22;10.50;;;2.07;;
24147;SDS011;12309;51.450;-2.624;2024-01-27T01:54:49;13.53;;;2.20;;
24147;SDS011;12309;51.450;-2.624;2024-01-27T01:57:16;17.07;;;2.50;;
24147;SDS011;12309;51.450;-2.624;2024-01-27T01:59:42;18.10;;;2.70;;
24147;SDS011;12309;51.450;-2.624;2024-01-27T02:02:08;12.57;;;1.93;;
24147;SDS011;12309;51.450;-2.624;2024-01-27T02:04:43;17.07;;;2.70;;
24147;SDS011;12309;51.450;-2.624;2024-01-27T02:07:13;21.53;;;2.43;;
24147;SDS011;12309;51.450;-2.624;2024-01-27T02:09:39;15.43;;;2.00;;
24147;SDS011;12309;51.450;-2.624;2024-01-27T02:12:05;17.63;;;2.43;;
24147;SDS011;12309;51.450;-2.624;2024-01-27T02:14:31;14.33;;;2.30;;
24147;SDS011;12309;51.450;-2.624;2024-01-27T02:16:57;22.77;;;2.27;;
24147;SDS011;12309;51.450;-2.624;2024-01-27T02:19:23;15.03;;;2.27;;
24147;SDS011;12309;51.450;-2.624;2024-01-27T02:21:49;11.77;;;2.00;;
24147;SDS011;12309;51.450;-2.624;2024-01-27T02:24:15;16.93;;;2.20;;
24147;SDS011;12309;51.450;-2.624;2024-01-27T02:26:40;15.33;;;2.13;;
24147;SDS011;12309;51.450;-2.624;2024-01-27T02:29:07;22.67;;;2.40;;
24147;SDS011;12309;51.450;-2.624;2024-01-27T02:31:33;22.27;;;2.67;;
24147;SDS011;12309;51.450;-2.624;2024-01-27T02:33:59;14.57;;;2.27;;
24147;SDS011;12309;51.450;-2.624;2024-01-27T02:36:24;10.43;;;1.83;;
24147;SDS011;12309;51.450;-2.624;2024-01-27T02:38:50;19.87;;;2.57;;
24147;SDS011;12309;51.450;-2.624;2024-01-27T02:41:16;12.07;;;1.87;;
24147;SDS011;12309;51.450;-2.624;2024-01-27T02:43:42;14.67;;;2.03;;
24147;SDS011;12309;51.450;-2.624;2024-01-27T02:46:08;10.47;;;1.43;;
24147;SDS011;12309;51.450;-2.624;2024-01-27T02:48:36;20.43;;;2.43;;
24147;SDS011;12309;51.450;-2.624;2024-01-27T02:51:05;20.30;;;2.13;;
24147;SDS011;12309;51.450;-2.624;2024-01-27T02:53:31;13.47;;;2.00;;
24147;SDS011;12309;51.450;-2.624;2024-01-27T02:55:57;10.93;;;2.20;;
24147;SDS011;12309;51.450;-2.624;2024-01-27T02:58:22;18.90;;;3.00;;
24147;SDS011;12309;51.450;-2.624;2024-01-27T03:00:48;14.20;;;2.23;;
24147;SDS011;12309;51.450;-2.624;2024-01-27T03:03:14;11.00;;;2.03;;
24147;SDS011;12309;51.450;-2.624;2024-01-27T03:05:41;9.67;;;1.80;;
24147;SDS011;12309;51.450;-2.624;2024-01-27T03:08:06;14.07;;;2.40;;
24147;SDS011;12309;51.450;-2.624;2024-01-27T03:10:34;15.93;;;2.07;;
24147;SDS011;12309;51.450;-2.624;2024-01-27T03:12:59;18.83;;;2.13;;
24147;SDS011;12309;51.450;-2.624;2024-01-27T03:15:25;11.70;;;1.70;;
24147;SDS011;12309;51.450;-2.624;2024-01-27T03:17:51;8.57;;;1.87;;
24147;SDS011;12309;51.450;-2.624;2024-01-27T03:20:17;20.43;;;2.40;;
24147;SDS011;12309;51.450;-2.624;2024-01-27T03:22:43;9.03;;;2.00;;
24147;SDS011;12309;51.450;-2.624;2024-01-27T03:25:09;13.77;;;2.27;;
24147;SDS011;12309;51.450;-2.624;2024-01-27T03:27:38;10.13;;;2.17;;
24147;SDS011;12309;51.450;-2.624;2024-01-27T03:30:05;20.93;;;2.73;;
24147;SDS011;12309;51.450;-2.624;2024-01-27T03:32:33;15.20;;;2.37;;
24147;SDS011;12309;51.450;-2.624;2024-01-27T03:34:59;13.53;;;2.43;;
24147;SDS011;12309;51.450;-2.624;2024-01-27T03:37:25;17.33;;;2.43;;
24147;SDS011;12309;51.450;-2.624;2024-01-27T03:39:51;14.13;;;2.23;;
24147;SDS011;12309;51.450;-2.624;2024-01-27T03:42:17;12.17;;;2.10;;
24147;SDS011;12309;51.450;-2.624;2024-01-27T03:44:43;19.13;;;1.87;;
24147;SDS011;12309;51.450;-2.624;2024-01-27T03:47:09;22.90;;;3.03;;
24147;SDS011;12309;51.450;-2.624;2024-01-27T03:49:35;22.30;;;2.53;;
24147;SDS011;12309;51.450;-2.624;2024-01-27T03:52:01;16.70;;;2.20;;
24147;SDS011;12309;51.450;-2.624;2024-01-27T03:54:27;18.03;;;2.33;;
24147;SDS011;12309;51.450;-2.624;2024-01-27T03:56:54;9.43;;;2.10;;
24147;SDS011;12309;51.450;-2.624;2024-01-27T03:59:19;19.07;;;2.20;;
24147;SDS011;12309;51.450;-2.624;2024-01-27T04:01:45;15.00;;;2.03;;
24147;SDS011;12309;51.450;-2.624;2024-01-27T04:04:11;15.17;;;2.33;;
24147;SDS011;12309;51.450;-2.624;2024-01-27T04:06:38;9.37;;;1.40;;
24147;SDS011;12309;51.450;-2.624;2024-01-27T04:09:05;14.30;;;2.40;;
24147;SDS011;12309;51.450;-2.624;2024-01-27T04:11:34;17.03;;;2.07;;
24147;SDS011;12309;51.450;-2.624;2024-01-27T04:14:01;19.17;;;2.07;;
24147;SDS011;12309;51.450;-2.624;2024-01-27T04:16:27;20.37;;;2.17;;
24147;SDS011;12309;51.450;-2.624;2024-01-27T04:18:54;12.47;;;2.27;;
24147;SDS011;12309;51.450;-2.624;2024-01-27T04:21:20;16.33;;;2.43;;
24147;SDS011;12309;51.450;-2.624;2024-01-27T04:23:46;11.70;;;1.73;;
24147;SDS011;12309;51.450;-2.624;2024-01-27T04:26:12;9.73;;;1.73;;
24147;SDS011;12309;51.450;-2.624;2024-01-27T04:28:38;16.77;;;1.77;;
24147;SDS011;12309;51.450;-2.624;2024-01-27T04:31:04;16.80;;;1.90;;
24147;SDS011;12309;51.450;-2.624;2024-01-27T04:33:30;13.87;;;2.07;;
24147;SDS011;12309;51.450;-2.624;2024-01-27T04:35:56;16.87;;;2.47;;
24147;SDS011;12309;51.450;-2.624;2024-01-27T04:38:22;12.37;;;2.20;;
24147;SDS011;12309;51.450;-2.624;2024-01-27T04:40:49;17.43;;;2.13;;
24147;SDS011;12309;51.450;-2.624;2024-01-27T04:43:15;19.00;;;2.13;;
24147;SDS011;12309;51.450;-2.624;2024-01-27T04:45:41;13.60;;;2.10;;
24147;SDS011;12309;51.450;-2.624;2024-01-27T04:48:07;13.50;;;2.10;;
24147;SDS011;12309;51.450;-2.624;2024-01-27T04:50:34;10.03;;;2.10;;
24147;SDS011;12309;51.450;-2.624;2024-01-27T04:53:00;15.33;;;2.43;;
24147;SDS011;12309;51.450;-2.624;2024-01-27T04:55:26;12.00;;;2.13;;
24147;SDS011;12309;51.450;-2.624;2024-01-27T04:57:52;13.23;;;2.07;;
24147;SDS011;12309;51.450;-2.624;2024-01-27T05:00:18;13.47;;;2.00;;
24147;SDS011;12309;51.450;-2.624;2024-01-27T05:02:44;9.83;;;1.47;;
24147;SDS011;12309;51.450;-2.624;2024-01-27T05:05:10;16.20;;;2.37;;
24147;SDS011;12309;51.450;-2.624;2024-01-27T05:07:37;10.43;;;2.17;;
24147;SDS011;12309;51.450;-2.624;2024-01-27T05:10:03;13.63;;;1.90;;
24147;SDS011;12309;51.450;-2.624;2024-01-27T05:12:29;13.27;;;2.30;;
24147;SDS011;12309;51.450;-2.624;2024-01-27T05:14:55;12.73;;;2.70;;
24147;SDS011;12309;51.450;-2.624;2024-01-27T05:17:22;12.50;;;2.07;;
24147;SDS011;12309;51.450;-2.624;2024-01-27T05:19:49;9.63;;;1.70;;
24147;SDS011;12309;51.450;-2.624;2024-01-27T05:22:16;14.73;;;1.93;;
24147;SDS011;12309;51.450;-2.624;2024-01-27T05:24:42;15.90;;;2.00;;
24147;SDS011;12309;51.450;-2.624;2024-01-27T05:27:09;11.20;;;1.70;;
24147;SDS011;12309;51.450;-2.624;2024-01-27T05:29:38;11.53;;;1.93;;
24147;SDS011;12309;51.450;-2.624;2024-01-27T05:32:04;12.07;;;2.50;;
24147;SDS011;12309;51.450;-2.624;2024-01-27T05:34:30;22.90;;;2.40;;
24147;SDS011;12309;51.450;-2.624;2024-01-27T05:36:56;14.30;;;2.20;;
24147;SDS011;12309;51.450;-2.624;2024-01-27T05:39:22;11.77;;;2.23;;
24147;SDS011;12309;51.450;-2.624;2024-01-27T05:41:49;11.97;;;1.90;;
24147;SDS011;12309;51.450;-2.624;2024-01-27T05:44:16;17.43;;;2.00;;
24147;SDS011;12309;51.450;-2.624;2024-01-27T05:46:42;15.13;;;2.10;;
24147;SDS011;12309;51.450;-2.624;2024-01-27T05:49:08;24.70;;;2.43;;
24147;SDS011;12309;51.450;-2.624;2024-01-27T05:51:34;13.70;;;2.60;;
24147;SDS011;12309;51.450;-2.624;2024-01-27T05:54:00;13.97;;;1.97;;
24147;SDS011;12309;51.450;-2.624;2024-01-27T05:56:27;10.53;;;1.60;;
24147;SDS011;12309;51.450;-2.624;2024-01-27T05:58:53;15.27;;;2.27;;
24147;SDS011;12309;51.450;-2.624;2024-01-27T06:01:20;14.50;;;2.40;;
24147;SDS011;12309;51.450;-2.624;2024-01-27T06:03:46;21.30;;;2.10;;
24147;SDS011;12309;51.450;-2.624;2024-01-27T06:06:12;13.43;;;2.00;;
24147;SDS011;12309;51.450;-2.624;2024-01-27T06:08:38;11.83;;;2.27;;
24147;SDS011;12309;51.450;-2.624;2024-01-27T06:11:04;15.03;;;2.63;;
24147;SDS011;12309;51.450;-2.624;2024-01-27T06:13:31;12.57;;;2.20;;
24147;SDS011;12309;51.450;-2.624;2024-01-27T06:16:00;13.00;;;1.93;;
24147;SDS011;12309;51.450;-2.624;2024-01-27T06:18:26;16.43;;;1.93;;
24147;SDS011;12309;51.450;-2.624;2024-01-27T06:20:51;8.60;;;1.80;;
24147;SDS011;12309;51.450;-2.624;2024-01-27T06:23:17;13.33;;;2.33;;
24147;SDS011;12309;51.450;-2.624;2024-01-27T06:25:43;14.63;;;2.37;;
24147;SDS011;12309;51.450;-2.624;2024-01-27T06:28:10;13.07;;;2.10;;
24147;SDS011;12309;51.450;-2.624;2024-01-27T06:30:37;15.90;;;2.73;;
24147;SDS011;12309;51.450;-2.624;2024-01-27T06:33:02;13.83;;;2.60;;
24147;SDS011;12309;51.450;-2.624;2024-01-27T06:35:28;15.80;;;2.70;;
24147;SDS011;12309;51.450;-2.624;2024-01-27T06:37:54;17.73;;;2.93;;
24147;SDS011;12309;51.450;-2.624;2024-01-27T06:40:20;12.70;;;2.57;;
24147;SDS011;12309;51.450;-2.624;2024-01-27T06:42:45;11.80;;;2.40;;
24147;SDS011;12309;51.450;-2.624;2024-01-27T06:45:12;15.80;;;2.63;;
24147;SDS011;12309;51.450;-2.624;2024-01-27T06:47:38;12.90;;;2.63;;
24147;SDS011;12309;51.450;-2.624;2024-01-27T06:50:04;19.47;;;3.00;;
24147;SDS011;12309;51.450;-2.624;2024-01-27T06:52:31;12.50;;;2.10;;
24147;SDS011;12309;51.450;-2.624;2024-01-27T06:54:57;14.07;;;2.20;;
24147;SDS011;12309;51.450;-2.624;2024-01-27T06:57:23;13.80;;;2.13;;
24147;SDS011;12309;51.450;-2.624;2024-01-27T06:59:50;16.93;;;2.60;;
24147;SDS011;12309;51.450;-2.624;2024-01-27T07:02:24;15.30;;;2.10;;
24147;SDS011;12309;51.450;-2.624;2024-01-27T07:04:53;14.07;;;1.93;;
24147;SDS011;12309;51.450;-2.624;2024-01-27T07:07:21;11.17;;;2.40;;
24147;SDS011;12309;51.450;-2.624;2024-01-27T07:09:51;14.30;;;2.60;;
24147;SDS011;12309;51.450;-2.624;2024-01-27T07:12:17;11.80;;;2.33;;
24147;SDS011;12309;51.450;-2.624;2024-01-27T07:14:43;16.10;;;2.43;;
24147;SDS011;12309;51.450;-2.624;2024-01-27T07:17:09;12.07;;;2.37;;
24147;SDS011;12309;51.450;-2.624;2024-01-27T07:19:35;16.30;;;2.50;;
24147;SDS011;12309;51.450;-2.624;2024-01-27T07:22:01;12.20;;;1.90;;
24147;SDS011;12309;51.450;-2.624;2024-01-27T07:24:28;11.90;;;2.17;;
24147;SDS011;12309;51.450;-2.624;2024-01-27T07:26:55;10.17;;;2.07;;
24147;SDS011;12309;51.450;-2.624;2024-01-27T07:29:21;11.83;;;2.10;;
24147;SDS011;12309;51.450;-2.624;2024-01-27T07:31:47;12.00;;;2.17;;
24147;SDS011;12309;51.450;-2.624;2024-01-27T07:34:15;19.53;;;2.70;;
24147;SDS011;12309;51.450;-2.624;2024-01-27T07:36:41;19.67;;;2.70;;
24147;SDS011;12309;51.450;-2.624;2024-01-27T07:39:07;11.93;;;2.63;;
24147;SDS011;12309;51.450;-2.624;2024-01-27T07:41:33;10.20;;;1.93;;
24147;SDS011;12309;51.450;-2.624;2024-01-27T07:46:44;11.90;;;2.67;;
24147;SDS011;12309;51.450;-2.624;2024-01-27T07:49:10;9.67;;;2.07;;
24147;SDS011;12309;51.450;-2.624;2024-01-27T07:51:38;12.73;;;2.40;;
24147;SDS011;12309;51.450;-2.624;2024-01-27T07:54:03;14.33;;;3.23;;
24147;SDS011;12309;51.450;-2.624;2024-01-27T07:56:29;10.87;;;2.93;;
24147;SDS011;12309;51.450;-2.624;2024-01-27T07:58:57;16.87;;;3.40;;
24147;SDS011;12309;51.450;-2.624;2024-01-27T08:01:23;13.67;;;2.77;;
24147;SDS011;12309;51.450;-2.624;2024-01-27T08:03:48;11.53;;;3.00;;
24147;SDS011;12309;51.450;-2.624;2024-01-27T08:06:15;8.70;;;2.57;;
24147;SDS011;12309;51.450;-2.624;2024-01-27T08:08:48;11.63;;;2.50;;
24147;SDS011;12309;51.450;-2.624;2024-01-27T08:11:14;17.70;;;3.20;;
24147;SDS011;12309;51.450;-2.624;2024-01-27T08:13:40;8.90;;;2.30;;
24147;SDS011;12309;51.450;-2.624;2024-01-27T08:16:07;10.50;;;2.80;;
24147;SDS011;12309;51.450;-2.624;2024-01-27T08:18:35;10.00;;;3.20;;
24147;SDS011;12309;51.450;-2.624;2024-01-27T08:21:02;11.30;;;3.17;;
24147;SDS011;12309;51.450;-2.624;2024-01-27T08:23:28;11.43;;;3.00;;
24147;SDS011;12309;51.450;-2.624;2024-01-27T08:25:54;14.63;;;3.37;;
24147;SDS011;12309;51.450;-2.624;2024-01-27T08:28:20;11.97;;;2.87;;
24147;SDS011;12309;51.450;-2.624;2024-01-27T08:30:46;14.00;;;3.30;;
24147;SDS011;12309;51.450;-2.624;2024-01-27T08:33:12;15.47;;;3.30;;
24147;SDS011;12309;51.450;-2.624;2024-01-27T08:35:38;7.87;;;2.60;;
24147;SDS011;12309;51.450;-2.624;2024-01-27T08:38:04;18.80;;;3.20;;
24147;SDS011;12309;51.450;-2.624;2024-01-27T08:40:31;14.13;;;3.30;;
24147;SDS011;12309;51.450;-2.624;2024-01-27T08:42:57;15.87;;;3.00;;
24147;SDS011;12309;51.450;-2.624;2024-01-27T08:45:23;6.63;;;2.87;;
24147;SDS011;12309;51.450;-2.624;2024-01-27T08:47:50;12.37;;;2.63;;
24147;SDS011;12309;51.450;-2.624;2024-01-27T08:50:16;12.57;;;2.50;;
24147;SDS011;12309;51.450;-2.624;2024-01-27T08:52:42;8.30;;;2.23;;
24147;SDS011;12309;51.450;-2.624;2024-01-27T08:55:08;23.77;;;3.00;;
24147;SDS011;12309;51.450;-2.624;2024-01-27T08:57:34;12.77;;;2.27;;
24147;SDS011;12309;51.450;-2.624;2024-01-27T08:59:59;12.77;;;2.43;;
24147;SDS011;12309;51.450;-2.624;2024-01-27T09:02:25;11.90;;;2.53;;
24147;SDS011;12309;51.450;-2.624;2024-01-27T09:04:51;9.17;;;1.97;;
24147;SDS011;12309;51.450;-2.624;2024-01-27T09:07:16;13.57;;;2.60;;
24147;SDS011;12309;51.450;-2.624;2024-01-27T09:09:42;21.23;;;2.83;;
24147;SDS011;12309;51.450;-2.624;2024-01-27T09:12:08;13.93;;;2.27;;
24147;SDS011;12309;51.450;-2.624;2024-01-27T09:14:34;14.37;;;2.87;;
24147;SDS011;12309;51.450;-2.624;2024-01-27T09:17:00;10.03;;;2.47;;
24147;SDS011;12309;51.450;-2.624;2024-01-27T09:19:27;16.23;;;2.60;;
24147;SDS011;12309;51.450;-2.624;2024-01-27T09:21:53;12.63;;;2.63;;
24147;SDS011;12309;51.450;-2.624;2024-01-27T09:24:19;12.40;;;2.93;;
24147;SDS011;12309;51.450;-2.624;2024-01-27T09:26:45;17.93;;;3.03;;
24147;SDS011;12309;51.450;-2.624;2024-01-27T09:29:11;11.03;;;2.43;;
24147;SDS011;12309;51.450;-2.624;2024-01-27T09:31:37;15.43;;;2.60;;
24147;SDS011;12309;51.450;-2.624;2024-01-27T09:34:03;13.27;;;2.60;;
24147;SDS011;12309;51.450;-2.624;2024-01-27T09:36:29;12.07;;;2.80;;
24147;SDS011;12309;51.450;-2.624;2024-01-27T09:38:54;11.07;;;2.80;;
24147;SDS011;12309;51.450;-2.624;2024-01-27T09:41:20;12.03;;;3.53;;
24147;SDS011;12309;51.450;-2.624;2024-01-27T09:43:46;12.33;;;2.83;;
24147;SDS011;12309;51.450;-2.624;2024-01-27T09:46:15;15.47;;;2.70;;
24147;SDS011;12309;51.450;-2.624;2024-01-27T09:48:42;16.17;;;3.43;;
24147;SDS011;12309;51.450;-2.624;2024-01-27T09:51:09;13.43;;;2.80;;
24147;SDS011;12309;51.450;-2.624;2024-01-27T09:53:35;19.80;;;3.17;;
24147;SDS011;12309;51.450;-2.624;2024-01-27T09:56:02;15.07;;;3.10;;
24147;SDS011;12309;51.450;-2.624;2024-01-27T09:58:29;14.03;;;2.97;;
24147;SDS011;12309;51.450;-2.624;2024-01-27T10:00:56;13.37;;;3.07;;
24147;SDS011;12309;51.450;-2.624;2024-01-27T10:03:23;16.97;;;2.90;;
24147;SDS011;12309;51.450;-2.624;2024-01-27T10:05:54;21.27;;;3.23;;
24147;SDS011;12309;51.450;-2.624;2024-01-27T10:08:21;21.27;;;3.67;;
24147;SDS011;12309;51.450;-2.624;2024-01-27T10:10:57;12.13;;;3.20;;
24147;SDS011;12309;51.450;-2.624;2024-01-27T10:13:22;16.47;;;3.33;;
24147;SDS011;12309;51.450;-2.624;2024-01-27T10:16:04;21.63;;;3.50;;
24147;SDS011;12309;51.450;-2.624;2024-01-27T10:18:30;27.10;;;3.37;;
24147;SDS011;12309;51.450;-2.624;2024-01-27T10:20:56;15.77;;;3.30;;
24147;SDS011;12309;51.450;-2.624;2024-01-27T10:23:23;12.93;;;2.63;;
24147;SDS011;12309;51.450;-2.624;2024-01-27T10:25:49;16.37;;;3.20;;
24147;SDS011;12309;51.450;-2.624;2024-01-27T10:28:16;16.07;;;3.13;;
24147;SDS011;12309;51.450;-2.624;2024-01-27T10:30:42;16.67;;;3.00;;
24147;SDS011;12309;51.450;-2.624;2024-01-27T10:33:08;13.50;;;2.87;;
24147;SDS011;12309;51.450;-2.624;2024-01-27T10:35:43;18.50;;;3.07;;
24147;SDS011;12309;51.450;-2.624;2024-01-27T10:38:09;22.03;;;3.33;;
24147;SDS011;12309;51.450;-2.624;2024-01-27T10:40:35;19.87;;;3.20;;
24147;SDS011;12309;51.450;-2.624;2024-01-27T10:43:10;15.20;;;3.50;;
24147;SDS011;12309;51.450;-2.624;2024-01-27T10:48:07;12.33;;;2.90;;
24147;SDS011;12309;51.450;-2.624;2024-01-27T10:50:36;12.33;;;3.00;;
24147;SDS011;12309;51.450;-2.624;2024-01-27T10:53:03;15.50;;;3.13;;
24147;SDS011;12309;51.450;-2.624;2024-01-27T10:55:31;15.67;;;3.43;;
24147;SDS011;12309;51.450;-2.624;2024-01-27T10:58:00;13.50;;;2.90;;
24147;SDS011;12309;51.450;-2.624;2024-01-27T11:00:27;20.23;;;3.27;;
24147;SDS011;12309;51.450;-2.624;2024-01-27T11:02:53;17.43;;;3.27;;
24147;SDS011;12309;51.450;-2.624;2024-01-27T11:05:24;21.93;;;3.07;;
24147;SDS011;12309;51.450;-2.624;2024-01-27T11:07:51;25.93;;;3.27;;
24147;SDS011;12309;51.450;-2.624;2024-01-27T11:10:18;16.13;;;3.47;;
24147;SDS011;12309;51.450;-2.624;2024-01-27T11:12:44;15.93;;;3.37;;
24147;SDS011;12309;51.450;-2.624;2024-01-27T11:15:12;16.83;;;3.10;;
24147;SDS011;12309;51.450;-2.624;2024-01-27T11:17:39;15.20;;;3.40;;
24147;SDS011;12309;51.450;-2.624;2024-01-27T11:20:07;17.47;;;4.03;;
24147;SDS011;12309;51.450;-2.624;2024-01-27T11:22:33;16.30;;;4.13;;
24147;SDS011;12309;51.450;-2.624;2024-01-27T11:27:39;17.90;;;3.87;;
24147;SDS011;12309;51.450;-2.624;2024-01-27T11:30:10;15.37;;;3.60;;
24147;SDS011;12309;51.450;-2.624;2024-01-27T11:32:54;16.80;;;3.40;;
24147;SDS011;12309;51.450;-2.624;2024-01-27T11:35:20;21.40;;;3.90;;
24147;SDS011;12309;51.450;-2.624;2024-01-27T11:37:47;14.23;;;3.43;;
24147;SDS011;12309;51.450;-2.624;2024-01-27T11:40:13;17.17;;;2.93;;
24147;SDS011;12309;51.450;-2.624;2024-01-27T11:42:40;15.37;;;2.80;;
24147;SDS011;12309;51.450;-2.624;2024-01-27T11:45:07;25.00;;;3.83;;
24147;SDS011;12309;51.450;-2.624;2024-01-27T11:47:34;12.97;;;3.17;;
24147;SDS011;12309;51.450;-2.624;2024-01-27T11:50:00;15.40;;;3.00;;
24147;SDS011;12309;51.450;-2.624;2024-01-27T11:52:27;12.37;;;2.30;;
24147;SDS011;12309;51.450;-2.624;2024-01-27T11:54:56;10.37;;;2.03;;
24147;SDS011;12309;51.450;-2.624;2024-01-27T11:57:23;9.50;;;1.40;;
24147;SDS011;12309;51.450;-2.624;2024-01-27T11:59:50;7.07;;;1.50;;
24147;SDS011;12309;51.450;-2.624;2024-01-27T12:02:16;10.53;;;1.80;;
24147;SDS011;12309;51.450;-2.624;2024-01-27T12:04:42;12.70;;;2.03;;
24147;SDS011;12309;51.450;-2.624;2024-01-27T12:07:08;10.10;;;1.40;;
24147;SDS011;12309;51.450;-2.624;2024-01-27T12:09:35;13.57;;;2.10;;
24147;SDS011;12309;51.450;-2.624;2024-01-27T12:12:02;13.83;;;1.63;;
24147;SDS011;12309;51.450;-2.624;2024-01-27T12:14:41;9.00;;;1.60;;
24147;SDS011;12309;51.450;-2.624;2024-01-27T12:17:10;12.80;;;2.47;;
24147;SDS011;12309;51.450;-2.624;2024-01-27T12:19:36;10.00;;;1.47;;
24147;SDS011;12309;51.450;-2.624;2024-01-27T12:22:03;10.50;;;1.67;;
24147;SDS011;12309;51.450;-2.624;2024-01-27T12:24:29;10.27;;;1.57;;
24147;SDS011;12309;51.450;-2.624;2024-01-27T12:26:57;12.40;;;1.77;;
24147;SDS011;12309;51.450;-2.624;2024-01-27T12:29:23;11.03;;;2.03;;
24147;SDS011;12309;51.450;-2.624;2024-01-27T12:31:49;18.80;;;1.90;;
24147;SDS011;12309;51.450;-2.624;2024-01-27T12:34:15;11.67;;;1.63;;
24147;SDS011;12309;51.450;-2.624;2024-01-27T12:36:41;10.80;;;2.07;;
24147;SDS011;12309;51.450;-2.624;2024-01-27T12:39:07;11.73;;;1.83;;
24147;SDS011;12309;51.450;-2.624;2024-01-27T12:41:34;12.90;;;2.03;;
24147;SDS011;12309;51.450;-2.624;2024-01-27T12:44:00;10.33;;;1.60;;
24147;SDS011;12309;51.450;-2.624;2024-01-27T12:46:26;19.53;;;2.20;;
24147;SDS011;12309;51.450;-2.624;2024-01-27T12:48:52;10.90;;;2.03;;
24147;SDS011;12309;51.450;-2.624;2024-01-27T12:51:18;12.03;;;1.90;;
24147;SDS011;12309;51.450;-2.624;2024-01-27T12:53:44;8.57;;;1.57;;
24147;SDS011;12309;51.450;-2.624;2024-01-27T12:56:11;13.20;;;2.40;;
24147;SDS011;12309;51.450;-2.624;2024-01-27T12:58:37;16.20;;;2.43;;
24147;SDS011;12309;51.450;-2.624;2024-01-27T13:01:04;8.70;;;1.50;;
24147;SDS011;12309;51.450;-2.624;2024-01-27T13:03:30;15.53;;;1.87;;
24147;SDS011;12309;51.450;-2.624;2024-01-27T13:05:56;14.17;;;1.60;;
24147;SDS011;12309;51.450;-2.624;2024-01-27T13:08:22;10.80;;;1.97;;
24147;SDS011;12309;51.450;-2.624;2024-01-27T13:10:49;12.43;;;2.53;;
24147;SDS011;12309;51.450;-2.624;2024-01-27T13:13:15;8.57;;;1.87;;
24147;SDS011;12309;51.450;-2.624;2024-01-27T13:15:41;9.10;;;1.98;;
24147;SDS011;12309;51.450;-2.624;2024-01-27T13:18:08;17.50;;;2.57;;
24147;SDS011;12309;51.450;-2.624;2024-01-27T13:20:35;18.07;;;2.37;;
24147;SDS011;12309;51.450;-2.624;2024-01-27T13:23:01;13.00;;;2.15;;
24147;SDS011;12309;51.450;-2.624;2024-01-27T13:25:27;13.73;;;2.72;;
24147;SDS011;12309;51.450;-2.624;2024-01-27T13:27:53;12.65;;;2.28;;
24147;SDS011;12309;51.450;-2.624;2024-01-27T13:30:20;20.70;;;2.83;;
24147;SDS011;12309;51.450;-2.624;2024-01-27T13:32:46;13.37;;;2.67;;
24147;SDS011;12309;51.450;-2.624;2024-01-27T13:35:12;15.32;;;2.40;;
24147;SDS011;12309;51.450;-2.624;2024-01-27T13:37:38;17.05;;;2.53;;
24147;SDS011;12309;51.450;-2.624;2024-01-27T13:40:04;16.20;;;2.13;;
24147;SDS011;12309;51.450;-2.624;2024-01-27T13:42:32;20.98;;;2.30;;
24147;SDS011;12309;51.450;-2.624;2024-01-27T13:44:59;19.70;;;2.70;;
24147;SDS011;12309;51.450;-2.624;2024-01-27T13:47:25;17.90;;;2.70;;
24147;SDS011;12309;51.450;-2.624;2024-01-27T13:49:51;14.17;;;2.30;;
24147;SDS011;12309;51.450;-2.624;2024-01-27T13:52:17;21.90;;;3.13;;
24147;SDS011;12309;51.450;-2.624;2024-01-27T13:54:43;16.97;;;2.77;;
24147;SDS011;12309;51.450;-2.624;2024-01-27T13:57:09;12.57;;;2.40;;
24147;SDS011;12309;51.450;-2.624;2024-01-27T13:59:35;20.50;;;2.60;;
24147;SDS011;12309;51.450;-2.624;2024-01-27T14:02:01;18.97;;;2.17;;
24147;SDS011;12309;51.450;-2.624;2024-01-27T14:04:27;22.23;;;2.90;;
24147;SDS011;12309;51.450;-2.624;2024-01-27T14:06:53;14.97;;;2.27;;
24147;SDS011;12309;51.450;-2.624;2024-01-27T14:09:21;24.00;;;3.10;;
24147;SDS011;12309;51.450;-2.624;2024-01-27T14:11:47;21.37;;;2.57;;
24147;SDS011;12309;51.450;-2.624;2024-01-27T14:14:13;15.20;;;2.20;;
24147;SDS011;12309;51.450;-2.624;2024-01-27T14:16:38;19.97;;;2.77;;
24147;SDS011;12309;51.450;-2.624;2024-01-27T14:19:04;14.93;;;3.27;;
24147;SDS011;12309;51.450;-2.624;2024-01-27T14:21:31;17.27;;;2.47;;
24147;SDS011;12309;51.450;-2.624;2024-01-27T14:23:57;20.13;;;2.40;;
24147;SDS011;12309;51.450;-2.624;2024-01-27T14:26:28;10.00;;;1.90;;